Time;durP1;ratioP1;P1;durP2;ratioP2;P2;SDS_P1;SDS_P2;PMS_P1;PMS_P2;Temp;Humidity;BMP_temperature;BMP_pressure;BME280_temperature;BME280_humidity;BME280_pressure;Samples;Min_cycle;Max_cycle;Signal;HPM_P1;HPM_P2
2022/06/01 00:02:26;;;;;;;4.65;3.42;;;;;;;13.67;63.84;100130.97;5051105;28;20072;-69
2022/06/01 00:04:54;;;;;;;5.07;3.13;;;;;;;13.70;63.90;100143.19;5036949;28;20800;-69
2022/06/01 00:07:20;;;;;;;4.30;3.25;;;;;;;13.67;64.12;100144.28;5055567;28;20053;-70
2022/06/01 00:09:47;;;;;;;3.33;3.03;;;;;;;13.62;64.08;100140.19;5051891;28;20450;-70
2022/06/01 00:12:14;;;;;;;4.60;3.45;;;;;;;13.61;64.48;100135.81;5046819;28;20132;-69
2022/06/01 00:14:40;;;;;;;3.90;3.30;;;;;;;13.55;64.91;100139.72;5053055;28;20127;-71
2022/06/01 00:17:07;;;;;;;6.70;3.88;;;;;;;13.52;65.65;100149.72;5048782;28;20059;-71
2022/06/01 00:19:34;;;;;;;5.78;3.80;;;;;;;13.44;66.04;100150.19;5053613;28;20132;-70
2022/06/01 00:22:14;;;;;;;7.53;3.80;;;;;;;13.38;65.95;100139.91;5048018;28;20072;-71
2022/06/01 00:24:43;;;;;;;4.43;3.92;;;;;;;13.18;66.47;100133.19;5047847;28;20048;-70
2022/06/01 00:27:11;;;;;;;4.68;3.35;;;;;;;13.21;66.84;100158.75;5042490;28;20110;-70
2022/06/01 00:29:39;;;;;;;4.50;3.80;;;;;;;13.11;66.81;100146.91;5046336;28;20036;-69
2022/06/01 00:32:11;;;;;;;5.43;4.07;;;;;;;13.07;67.14;100159.53;5053646;28;20115;-70
2022/06/01 00:34:39;;;;;;;3.83;3.42;;;;;;;12.99;67.56;100159.16;5032423;28;20049;-69
2022/06/01 00:37:06;;;;;;;5.22;3.75;;;;;;;12.93;67.61;100160.38;5049076;28;20087;-71
2022/06/01 00:39:34;;;;;;;4.97;3.60;;;;;;;12.90;67.58;100168.56;5052664;28;20356;-70
2022/06/01 00:42:19;;;;;;;5.78;3.90;;;;;;;12.82;67.88;100170.81;5030346;28;20053;-70
2022/06/01 00:44:47;;;;;;;4.10;3.30;;;;;;;12.62;68.49;100153.38;5044695;28;20128;-70
2022/06/01 00:47:17;;;;;;;4.32;3.92;;;;;;;12.64;68.80;100170.09;5049506;28;20156;-70
2022/06/01 00:49:54;;;;;;;7.68;4.22;;;;;;;12.48;68.99;100149.81;5050866;28;20052;-70
2022/06/01 00:52:35;;;;;;;7.80;4.82;;;;;;;12.59;68.66;100176.63;5051619;28;20704;-70
2022/06/01 00:55:19;;;;;;;7.82;5.10;;;;;;;12.59;69.25;100177.47;5050054;28;20087;-70
2022/06/01 00:57:50;;;;;;;6.47;4.63;;;;;;;12.64;68.74;100178.06;5053222;28;20132;-70
2022/06/01 01:00:22;;;;;;;5.20;3.80;;;;;;;12.66;67.31;100180.63;5044508;28;20144;-70
2022/06/01 01:02:50;;;;;;;4.55;3.30;;;;;;;12.64;66.18;100174.53;5047351;28;20049;-70
2022/06/01 01:05:20;;;;;;;3.92;3.25;;;;;;;12.64;66.18;100172.75;5038614;28;20596;-71
2022/06/01 01:07:50;;;;;;;3.93;2.90;;;;;;;12.71;65.54;100167.94;5037619;28;20071;-71
2022/06/01 01:10:17;;;;;;;5.50;3.30;;;;;;;12.63;65.33;100146.28;5030594;28;20053;-70
2022/06/01 01:13:01;;;;;;;3.85;2.85;;;;;;;12.77;64.76;100158.72;5032209;28;20073;-69
2022/06/01 01:15:43;;;;;;;3.17;2.88;;;;;;;12.83;65.05;100156.56;5024061;28;20132;-70
2022/06/01 01:18:17;;;;;;;2.80;2.60;;;;;;;12.84;65.25;100155.63;5022278;28;20057;-70
2022/06/01 01:20:56;;;;;;;4.97;2.95;;;;;;;12.80;65.98;100154.09;5024587;28;20049;-70
2022/06/01 01:23:38;;;;;;;6.05;3.20;;;;;;;12.62;66.23;100133.94;5027660;28;20405;-70
2022/06/01 01:26:06;;;;;;;3.75;3.10;;;;;;;12.54;66.94;100126.44;5027232;28;20125;-69
2022/06/01 01:28:33;;;;;;;3.25;2.95;;;;;;;12.65;67.20;100149.69;5030316;28;20067;-69
2022/06/01 01:31:04;;;;;;;5.20;3.50;;;;;;;12.57;67.31;100133.38;5024756;28;20041;-70
2022/06/01 01:33:31;;;;;;;5.20;2.88;;;;;;;12.49;68.32;100127.63;5029328;28;20041;-70
2022/06/01 01:36:07;;;;;;;4.05;2.90;;;;;;;12.46;68.27;100122.50;5029833;28;20072;-70
2022/06/01 01:38:47;;;;;;;3.40;2.95;;;;;;;12.46;68.90;100123.34;5025163;28;20328;-70
2022/06/01 01:41:21;;;;;;;3.53;3.20;;;;;;;12.48;68.66;100140.06;5022163;28;20569;-69
2022/06/01 01:44:05;;;;;;;5.65;3.13;;;;;;;12.38;69.48;100138.91;5022186;28;22466;-70
2022/06/01 01:46:32;;;;;;;3.65;3.10;;;;;;;12.30;69.66;100128.72;5021083;28;20687;-69
2022/06/01 01:48:59;;;;;;;3.72;3.20;;;;;;;12.36;69.82;100135.47;5024496;28;20053;-69
2022/06/01 01:51:28;;;;;;;4.60;3.13;;;;;;;12.38;69.99;100141.56;5034380;28;20053;-70
2022/06/01 01:53:56;;;;;;;5.93;3.30;;;;;;;12.35;70.07;100143.53;5038061;28;20048;-69
2022/06/01 01:56:41;;;;;;;4.30;3.05;;;;;;;12.33;70.47;100153.38;5023193;28;20057;-68
2022/06/01 01:59:31;;;;;;;5.53;3.53;;;;;;;12.32;70.47;100155.19;5030833;28;20083;-70
2022/06/01 02:02:23;;;;;;;5.70;3.67;;;;;;;12.28;70.45;100158.94;5026464;28;20053;-70
2022/06/01 02:08:17;;;;;;;3.28;2.97;;;;;;;12.30;70.50;100118.09;5031300;28;20058;-70
2022/06/01 02:13:31;;;;;;;4.20;3.28;;;;;;;12.30;70.91;100115.44;5026956;28;20513;-70
2022/06/01 02:16:00;;;;;;;3.90;3.40;;;;;;;12.20;71.20;100090.38;5024439;28;20049;-70
2022/06/01 02:18:34;;;;;;;4.60;3.53;;;;;;;12.33;70.94;100114.41;5024452;28;20045;-70
2022/06/01 02:21:08;;;;;;;3.67;3.33;;;;;;;12.29;71.04;100110.22;5027624;28;20085;-70
2022/06/01 02:23:36;;;;;;;5.25;3.60;;;;;;;12.28;70.86;100114.66;5035160;28;20049;-70
2022/06/01 02:26:03;;;;;;;4.13;2.88;;;;;;;12.11;71.43;100106.84;5028655;28;20497;-71
2022/06/01 02:28:30;;;;;;;4.47;3.30;;;;;;;12.06;71.74;100116.88;5029220;28;20057;-71
2022/06/01 02:30:58;;;;;;;3.97;2.85;;;;;;;12.08;71.91;100130.91;5025771;28;20437;-71
2022/06/01 02:33:33;;;;;;;4.10;3.28;;;;;;;12.03;71.94;100130.31;5029392;28;20198;-70
2022/06/01 02:36:02;;;;;;;4.80;3.65;;;;;;;12.03;72.18;100146.22;5023537;28;20115;-70
2022/06/01 02:38:39;;;;;;;3.65;3.35;;;;;;;11.94;72.53;100134.34;5026078;28;20104;-71
2022/06/01 02:41:06;;;;;;;4.70;3.35;;;;;;;11.93;72.47;100142.41;5026260;28;20504;-69
2022/06/01 02:43:49;;;;;;;5.00;3.60;;;;;;;11.93;72.57;100143.25;5026822;28;20049;-70
2022/06/01 02:46:16;;;;;;;4.65;3.38;;;;;;;11.73;72.97;100126.72;5021579;28;20144;-70
2022/06/01 02:48:43;;;;;;;3.60;3.28;;;;;;;11.81;73.61;100153.69;5028833;28;20057;-70
2022/06/01 02:51:10;;;;;;;5.47;3.40;;;;;;;11.79;73.49;100159.09;5019461;28;20449;-70
2022/06/01 02:53:37;;;;;;;6.13;3.70;;;;;;;11.74;74.06;100155.81;5037097;28;20049;-70
2022/06/01 02:56:06;;;;;;;4.07;3.73;;;;;;;11.66;74.09;100162.44;5033235;28;20056;-70
2022/06/01 02:58:34;;;;;;;9.10;4.05;;;;;;;11.51;74.44;100164.16;5032217;28;20434;-70
2022/06/01 03:01:01;;;;;;;4.82;3.97;;;;;;;11.39;75.10;100184.25;5031683;28;20055;-70
2022/06/01 03:03:28;;;;;;;5.80;4.13;;;;;;;11.17;76.33;100171.28;5031228;28;20069;-70
2022/06/01 03:05:55;;;;;;;5.88;4.25;;;;;;;11.06;76.83;100165.69;5034559;28;20071;-70
2022/06/01 03:08:22;;;;;;;5.18;4.63;;;;;;;11.00;77.13;100158.06;5032681;28;20073;-71
2022/06/01 03:10:49;;;;;;;4.90;4.43;;;;;;;10.95;78.13;100154.78;5021213;28;20053;-71
2022/06/01 03:13:20;;;;;;;5.22;4.30;;;;;;;10.92;78.15;100172.63;5032756;28;20489;-70
2022/06/01 03:15:47;;;;;;;5.22;4.60;;;;;;;10.83;78.74;100166.03;5023715;28;20067;-70
2022/06/01 03:18:14;;;;;;;6.30;4.63;;;;;;;10.75;79.20;100162.91;5028054;28;20073;-70
2022/06/01 03:20:42;;;;;;;6.95;4.50;;;;;;;10.75;79.74;100174.34;5034390;28;20136;-69
2022/06/01 03:23:09;;;;;;;4.57;4.18;;;;;;;10.68;79.92;100146.50;5032546;28;20508;-69
2022/06/01 03:25:38;;;;;;;5.18;4.65;;;;;;;10.83;80.05;100161.59;5024104;28;20041;-71
2022/06/01 03:28:06;;;;;;;5.78;4.20;;;;;;;10.87;80.07;100167.56;5031031;28;20069;-71
2022/06/01 03:30:33;;;;;;;5.65;4.43;;;;;;;10.77;79.67;100156.59;5028582;28;20052;-71
2022/06/01 03:33:00;;;;;;;5.22;4.53;;;;;;;10.68;80.37;100143.00;5026332;28;20045;-70
2022/06/01 03:35:29;;;;;;;4.45;4.03;;;;;;;10.82;80.69;100159.88;5029780;28;20041;-69
2022/06/01 03:37:59;;;;;;;6.35;4.35;;;;;;;10.94;80.08;100154.88;5032630;28;20132;-70
2022/06/01 03:40:31;;;;;;;6.53;4.37;;;;;;;11.03;79.59;100155.22;5030229;28;20156;-71
2022/06/01 03:42:58;;;;;;;6.88;4.00;;;;;;;11.06;79.65;100149.78;5034215;28;20060;-69
2022/06/01 03:48:12;;;;;;;7.00;3.85;;;;;;;11.10;79.42;100161.06;5026332;28;20080;-70
2022/06/01 03:50:39;;;;;;;14.95;9.60;;;;;;;11.17;79.26;100170.44;5029219;28;20315;-70
2022/06/01 03:53:06;;;;;;;4.78;4.28;;;;;;;11.18;78.76;100156.22;5028265;28;20088;-70
2022/06/01 03:55:34;;;;;;;6.35;4.40;;;;;;;11.31;78.60;100167.03;5007944;28;20085;-70
2022/06/01 03:58:02;;;;;;;5.93;4.45;;;;;;;11.34;78.24;100173.00;5022682;28;20050;-70
2022/06/01 04:00:29;;;;;;;7.38;4.65;;;;;;;11.39;78.06;100181.59;5026431;28;20137;-70
2022/06/01 04:02:55;;;;;;;6.78;4.30;;;;;;;11.44;77.66;100176.03;5029133;28;20081;-71
2022/06/01 04:05:23;;;;;;;5.85;4.47;;;;;;;11.47;77.91;100176.75;5022632;28;20128;-69
2022/06/01 04:07:50;;;;;;;7.00;4.57;;;;;;;11.49;77.52;100177.50;5028841;28;20057;-70
2022/06/01 04:10:17;;;;;;;5.22;4.72;;;;;;;11.47;77.57;100182.03;5026445;28;20096;-70
2022/06/01 04:12:43;;;;;;;5.50;4.25;;;;;;;11.43;77.86;100196.41;5022198;28;20532;-70
2022/06/01 04:15:10;;;;;;;6.53;4.30;;;;;;;11.35;77.85;100195.94;5024478;28;20069;-70
2022/06/01 04:17:37;;;;;;;7.13;5.03;;;;;;;11.28;77.96;100186.63;5031193;28;20107;-71
2022/06/01 04:20:05;;;;;;;6.53;4.47;;;;;;;11.23;78.39;100197.44;5031628;28;20057;-69
2022/06/01 04:22:34;;;;;;;7.90;4.80;;;;;;;11.15;78.41;100194.38;5027599;28;21623;-69
2022/06/01 04:25:01;;;;;;;5.45;4.28;;;;;;;11.09;79.01;100199.13;5023377;28;20049;-70
2022/06/01 04:27:27;;;;;;;5.53;4.65;;;;;;;10.97;79.43;100182.06;5025657;28;20064;-71
2022/06/01 04:29:54;;;;;;;7.07;4.97;;;;;;;11.05;79.31;100186.94;5023288;28;20068;-70
2022/06/01 04:32:28;;;;;;;5.88;4.70;;;;;;;11.35;78.49;100203.88;5021630;28;20049;-69
2022/06/01 04:34:54;;;;;;;6.40;4.88;;;;;;;11.46;77.33;100196.25;5024504;28;20050;-70
2022/06/01 04:37:21;;;;;;;5.68;4.70;;;;;;;11.60;76.66;100206.09;5028434;28;20050;-70
2022/06/01 04:39:48;;;;;;;6.22;4.57;;;;;;;11.67;75.74;100198.66;5037835;28;20053;-70
2022/06/01 04:42:14;;;;;;;6.95;4.50;;;;;;;11.64;75.45;100191.75;5024995;28;20350;-70
2022/06/01 04:44:41;;;;;;;6.70;5.22;;;;;;;11.58;75.38;100186.75;5034450;28;20084;-71
2022/06/01 04:47:09;;;;;;;5.13;4.63;;;;;;;11.66;75.37;100211.06;5034680;28;20497;-69
2022/06/01 04:49:36;;;;;;;5.22;4.10;;;;;;;11.52;75.58;100198.53;5031054;28;20056;-70
2022/06/01 04:52:04;;;;;;;7.30;5.30;;;;;;;11.55;76.30;100202.84;5029358;28;20038;-69
2022/06/01 04:54:31;;;;;;;6.80;4.43;;;;;;;11.45;76.05;100202.47;5027448;28;20049;-71
2022/06/01 04:56:57;;;;;;;6.25;4.18;;;;;;;11.37;75.65;100174.66;5023111;28;20358;-70
2022/06/01 04:59:24;;;;;;;4.85;4.00;;;;;;;11.64;74.77;100201.50;5029223;28;20064;-69
2022/06/01 05:01:51;;;;;;;7.72;4.43;;;;;;;11.75;73.14;100202.63;5028721;28;20052;-71
2022/06/01 05:04:18;;;;;;;5.85;4.35;;;;;;;11.90;71.37;100207.09;5029857;28;20049;-70
2022/06/01 05:06:45;;;;;;;6.25;4.25;;;;;;;12.06;71.56;100209.75;5026535;28;20072;-70
2022/06/01 05:09:11;;;;;;;4.63;4.00;;;;;;;12.24;71.08;100207.88;5032883;28;20059;-70
2022/06/01 05:11:38;;;;;;;5.70;4.15;;;;;;;12.40;70.13;100202.53;5028345;28;20053;-70
2022/06/01 05:14:05;;;;;;;7.18;4.35;;;;;;;12.54;69.41;100200.81;5026433;28;20439;-69
2022/06/01 05:16:31;;;;;;;5.72;4.50;;;;;;;12.71;69.38;100209.59;5024867;28;20057;-70
2022/06/01 05:18:58;;;;;;;6.38;4.50;;;;;;;12.85;67.93;100202.50;5029660;28;20136;-70
2022/06/01 05:21:25;;;;;;;6.28;4.55;;;;;;;12.95;68.20;100206.31;5027556;28;20046;-71
2022/06/01 05:23:52;;;;;;;5.03;3.97;;;;;;;13.00;68.17;100198.94;5024780;28;20099;-69
2022/06/01 05:26:19;;;;;;;4.90;4.05;;;;;;;13.13;67.53;100203.50;5030290;28;20096;-70
2022/06/01 05:28:45;;;;;;;6.25;4.22;;;;;;;13.21;67.72;100210.13;5030698;28;20077;-71
2022/06/01 05:31:13;;;;;;;6.60;4.40;;;;;;;13.28;67.08;100192.81;5024608;28;20615;-71
2022/06/01 05:33:43;;;;;;;3.95;3.55;;;;;;;13.47;65.30;100202.34;5026566;28;20477;-70
2022/06/01 05:36:11;;;;;;;4.63;3.77;;;;;;;13.43;65.61;100206.13;5023163;28;20045;-70
2022/06/01 05:38:38;;;;;;;5.85;4.05;;;;;;;13.27;66.89;100201.75;5025708;28;20050;-71
2022/06/01 05:41:05;;;;;;;5.53;4.15;;;;;;;13.27;66.86;100206.22;5020009;28;20415;-69
2022/06/01 05:43:31;;;;;;;3.70;3.28;;;;;;;13.31;65.70;100197.97;5021463;28;20486;-70
2022/06/01 05:45:58;;;;;;;4.18;3.78;;;;;;;13.47;65.79;100208.50;5017957;28;20363;-70
2022/06/01 05:48:25;;;;;;;5.68;3.63;;;;;;;13.66;65.89;100216.22;5021906;28;20139;-71
2022/06/01 05:50:57;;;;;;;5.78;3.72;;;;;;;13.74;65.60;100199.75;5020344;28;20049;-71
2022/06/01 05:53:23;;;;;;;3.97;3.30;;;;;;;13.84;64.57;100184.94;5019603;28;20049;-70
2022/06/01 05:55:51;;;;;;;4.60;3.30;;;;;;;14.11;63.47;100209.78;5015690;28;20042;-72
2022/06/01 05:58:20;;;;;;;4.75;3.35;;;;;;;14.30;62.09;100214.78;5011068;28;20076;-70
2022/06/01 06:00:49;;;;;;;4.70;3.72;;;;;;;14.43;62.84;100237.03;5022731;28;20496;-70
2022/06/01 06:03:18;;;;;;;5.57;4.00;;;;;;;14.47;62.03;100224.34;5018676;28;20046;-69
2022/06/01 06:08:37;;;;;;;6.72;3.95;;;;;;;14.63;61.62;100228.59;5011836;28;20052;-69
2022/06/01 06:11:11;;;;;;;4.90;3.78;;;;;;;14.55;62.99;100230.88;5022711;28;20063;-71
2022/06/01 06:13:38;;;;;;;5.13;4.07;;;;;;;14.38;62.78;100233.75;5000518;28;20103;-71
2022/06/01 06:16:06;;;;;;;6.18;4.07;;;;;;;14.37;63.76;100230.25;5013675;28;20069;-71
2022/06/01 06:18:34;;;;;;;4.78;3.95;;;;;;;14.61;62.52;100234.97;4997203;28;20061;-71
2022/06/01 06:21:02;;;;;;;4.72;4.10;;;;;;;15.03;61.89;100242.75;5023168;28;20129;-70
2022/06/01 06:23:29;;;;;;;3.53;3.13;;;;;;;15.43;58.67;100224.84;5018580;28;20058;-71
2022/06/01 06:25:56;;;;;;;5.25;3.35;;;;;;;16.08;56.95;100247.88;5016974;28;20084;-71
2022/06/01 06:28:23;;;;;;;5.57;3.38;;;;;;;16.39;54.92;100225.09;5008089;28;20215;-70
2022/06/01 06:30:49;;;;;;;6.47;3.88;;;;;;;16.56;54.27;100239.91;5021248;28;20054;-71
2022/06/01 06:33:16;;;;;;;5.53;3.38;;;;;;;16.58;55.44;100252.19;5014735;28;20049;-70
2022/06/01 06:35:44;;;;;;;3.22;2.92;;;;;;;17.02;53.62;100248.88;5027268;28;20386;-70
2022/06/01 06:38:11;;;;;;;3.70;2.80;;;;;;;17.44;51.55;100252.78;5024905;28;20645;-71
2022/06/01 06:40:38;;;;;;;3.90;2.88;;;;;;;17.44;51.22;100228.69;5026070;28;20064;-69
2022/06/01 06:43:05;;;;;;;3.25;2.95;;;;;;;17.75;50.17;100251.25;5023433;28;20037;-70
2022/06/01 06:45:31;;;;;;;3.42;2.88;;;;;;;18.09;49.38;100256.63;5019765;28;20153;-70
2022/06/01 06:47:58;;;;;;;3.35;2.88;;;;;;;18.00;49.48;100222.50;5021568;28;20703;-70
2022/06/01 06:50:25;;;;;;;7.10;3.00;;;;;;;18.46;49.45;100244.59;5025458;28;20639;-71
2022/06/01 06:53:12;;;;;;;3.92;3.40;;;;;;;18.87;48.95;100243.91;5028993;28;20067;-68
2022/06/01 06:55:39;;;;;;;4.30;3.28;;;;;;;19.22;47.83;100245.41;5025281;28;20057;-70
2022/06/01 06:58:08;;;;;;;3.40;2.95;;;;;;;19.51;45.95;100253.72;5015795;28;20055;-71
2022/06/01 07:00:35;;;;;;;4.80;3.00;;;;;;;19.52;45.78;100242.81;5021665;28;20084;-72
2022/06/01 07:03:03;;;;;;;6.10;3.25;;;;;;;19.64;44.83;100237.38;5023211;28;20054;-71
2022/06/01 07:08:16;;;;;;;5.57;3.72;;;;;;;18.66;47.14;100232.25;5024634;28;20137;-71
2022/06/01 07:10:43;;;;;;;7.20;3.28;;;;;;;18.34;47.00;100234.03;5027878;28;20099;-72
2022/06/01 07:13:10;;;;;;;5.22;3.15;;;;;;;18.06;48.32;100244.31;5027777;28;20051;-73
2022/06/01 07:15:37;;;;;;;7.78;2.95;;;;;;;18.06;47.23;100243.47;5019559;28;20123;-71
2022/06/01 07:18:05;;;;;;;4.75;3.00;;;;;;;18.01;48.50;100230.44;5019574;28;20087;-71
2022/06/01 07:20:32;;;;;;;4.70;3.00;;;;;;;18.54;47.30;100220.69;5015382;28;20053;-68
2022/06/01 07:22:59;;;;;;;4.00;2.60;;;;;;;18.82;46.24;100226.47;5019190;28;20139;-71
2022/06/01 07:25:27;;;;;;;3.58;2.53;;;;;;;19.41;43.50;100234.81;5029713;28;20135;-70
2022/06/01 07:27:55;;;;;;;3.38;2.45;;;;;;;19.49;44.38;100236.84;5022453;28;20084;-68
2022/06/01 07:30:22;;;;;;;3.40;2.30;;;;;;;19.76;42.35;100218.34;5018152;28;20076;-71
2022/06/01 07:32:50;;;;;;;5.75;2.25;;;;;;;20.23;41.21;100222.19;5014919;28;20053;-72
2022/06/01 07:35:18;;;;;;;4.50;2.75;;;;;;;20.52;42.55;100230.31;5020458;28;20181;-72
2022/06/01 07:43:21;;;;;;;3.33;2.00;;;;;;;19.65;43.04;100226.50;5023682;28;20055;-71
2022/06/01 07:45:51;;;;;;;8.05;2.10;;;;;;;19.28;43.23;100234.16;5016029;28;20631;-70
2022/06/01 07:48:18;;;;;;;3.55;1.80;;;;;;;19.51;42.63;100230.38;5023395;28;20060;-71
2022/06/01 07:51:06;;;;;;;2.78;1.80;;;;;;;19.67;42.97;100199.50;5023916;28;20081;-72
2022/06/01 07:53:33;;;;;;;3.47;2.22;;;;;;;20.07;42.57;100221.00;5024903;28;20526;-70
2022/06/01 07:55:59;;;;;;;6.28;2.25;;;;;;;20.44;41.23;100230.19;5023303;28;20041;-71
2022/06/01 07:58:26;;;;;;;4.25;1.95;;;;;;;19.98;41.05;100216.44;5024737;28;20580;-71
2022/06/01 08:00:53;;;;;;;3.13;1.92;;;;;;;19.53;42.84;100219.47;5025416;28;20390;-72
2022/06/01 08:03:21;;;;;;;4.63;2.10;;;;;;;19.11;42.55;100218.63;5023260;28;20075;-70
2022/06/01 08:05:48;;;;;;;4.53;2.03;;;;;;;18.93;44.17;100227.25;5024175;28;20152;-70
2022/06/01 08:08:15;;;;;;;1.90;1.77;;;;;;;19.02;44.58;100222.13;5022332;28;20467;-73
2022/06/01 08:10:42;;;;;;;6.30;2.33;;;;;;;19.08;44.34;100211.69;5040727;28;20061;-70
2022/06/01 08:13:12;;;;;;;3.85;2.13;;;;;;;19.66;42.66;100219.28;5024991;28;20045;-70
2022/06/01 08:15:46;;;;;;;3.97;2.00;;;;;;;19.60;40.88;100224.22;5022479;28;20053;-71
2022/06/01 08:18:23;;;;;;;3.70;1.90;;;;;;;19.87;40.92;100217.38;5019478;28;20041;-71
2022/06/01 08:20:51;;;;;;;3.75;1.65;;;;;;;20.04;40.11;100222.13;5022866;28;20485;-73
2022/06/01 08:23:22;;;;;;;1.73;1.30;;;;;;;20.30;40.32;100217.09;5023671;28;20065;-71
2022/06/01 08:25:50;;;;;;;;;;;;;;;20.35;40.53;100212.16;5020647;28;20049;-71
2022/06/01 08:28:18;;;;;;;3.95;2.05;;;;;;;20.46;40.24;100212.03;5023052;28;19924;-70
2022/06/01 08:30:46;;;;;;;4.20;1.92;;;;;;;19.85;41.39;100209.44;5020533;28;20103;-71
2022/06/01 08:33:14;;;;;;;3.10;1.80;;;;;;;19.63;41.84;100217.72;5021798;28;20037;-72
2022/06/01 08:35:47;;;;;;;2.45;1.40;;;;;;;19.99;42.40;100218.97;5017926;28;20053;-72
2022/06/01 08:38:15;;;;;;;3.05;1.60;;;;;;;20.50;39.67;100218.00;5022570;28;20144;-70
2022/06/01 08:40:48;;;;;;;1.83;1.40;;;;;;;20.82;38.77;100215.06;5017032;28;20080;-71
2022/06/01 08:43:17;;;;;;;3.05;1.60;;;;;;;21.08;38.29;100220.72;5022359;28;20049;-70
2022/06/01 08:45:51;;;;;;;5.63;1.48;;;;;;;21.08;38.96;100223.41;5020421;28;20544;-72
2022/06/01 08:48:29;;;;;;;4.50;1.38;;;;;;;20.74;39.69;100221.16;5023573;28;20125;-70
2022/06/01 08:50:56;;;;;;;3.45;1.60;;;;;;;20.57;39.39;100227.22;5020788;28;20045;-71
2022/06/01 08:53:23;;;;;;;1.75;1.23;;;;;;;20.50;39.36;100215.31;5014093;28;20049;-71
2022/06/01 08:55:53;;;;;;;2.45;1.38;;;;;;;20.66;39.44;100221.00;5024501;28;20128;-74
2022/06/01 08:58:31;;;;;;;2.78;1.52;;;;;;;20.41;38.98;100225.09;5022750;28;20053;-73
2022/06/01 09:01:12;;;;;;;2.50;1.40;;;;;;;20.13;39.83;100225.84;5020245;28;20053;-71
2022/06/01 09:03:48;;;;;;;3.17;2.00;;;;;;;19.77;40.67;100214.66;5016841;28;20108;-72
2022/06/01 09:06:27;;;;;;;3.30;1.77;;;;;;;19.72;41.09;100233.03;5017508;28;20494;-71
2022/06/01 09:09:10;;;;;;;2.90;1.30;;;;;;;20.09;40.65;100229.78;5024003;28;20501;-71
2022/06/01 09:11:40;;;;;;;10.35;1.95;;;;;;;20.29;39.44;100235.09;5022358;28;20493;-71
2022/06/01 09:14:28;;;;;;;3.40;1.30;;;;;;;20.26;39.12;100221.91;5025317;28;20057;-71
2022/06/01 09:16:56;;;;;;;2.35;1.20;;;;;;;20.48;39.39;100230.75;5026191;28;20128;-70
2022/06/01 09:19:26;;;;;;;3.75;1.38;;;;;;;20.54;38.14;100227.50;5022864;28;20049;-70
2022/06/01 09:24:59;;;;;;;2.15;1.52;;;;;;;21.26;37.47;100229.78;5020441;28;20065;-70
2022/06/01 09:27:38;;;;;;;2.47;1.52;;;;;;;21.24;37.31;100235.34;5025023;28;20091;-71
2022/06/01 09:30:24;;;;;;;4.50;1.23;;;;;;;21.06;37.61;100231.63;5019761;28;20120;-71
2022/06/01 09:33:00;;;;;;;2.10;1.52;;;;;;;20.77;38.49;100215.50;5007029;28;20048;-71
2022/06/01 09:35:34;;;;;;;3.63;1.00;;;;;;;20.54;38.53;100235.56;5023875;28;20458;-71
2022/06/01 09:38:11;;;;;;;1.77;1.25;;;;;;;20.59;38.53;100241.41;5019545;28;20055;-70
2022/06/01 09:40:38;;;;;;;3.00;1.40;;;;;;;20.69;37.83;100238.69;5022436;28;20056;-71
2022/06/01 09:43:05;;;;;;;3.22;1.27;;;;;;;20.85;37.72;100233.63;5022362;28;20143;-71
2022/06/01 09:45:53;;;;;;;3.78;1.40;;;;;;;20.87;37.62;100243.25;5025514;28;20132;-70
2022/06/01 09:48:27;;;;;;;1.65;0.85;;;;;;;20.58;36.66;100243.22;5020987;28;20072;-71
2022/06/01 09:51:22;;;;;;;2.50;1.30;;;;;;;20.17;37.79;100213.81;5021848;28;20083;-70
2022/06/01 09:54:09;;;;;;;2.92;1.20;;;;;;;20.52;37.62;100240.25;5021439;28;20112;-70
2022/06/01 09:56:44;;;;;;;1.65;0.90;;;;;;;20.49;36.25;100235.13;5024514;28;20478;-70
2022/06/01 10:07:47;;;;;;;4.38;0.88;;;;;;;20.41;36.64;100232.31;5003525;28;20075;-71
2022/06/01 10:10:24;;;;;;;2.10;0.73;;;;;;;20.58;35.88;100237.84;5004135;28;20077;-70
2022/06/01 10:12:54;;;;;;;3.83;1.10;;;;;;;20.64;35.99;100236.41;5001574;28;20046;-71
2022/06/01 10:15:47;;;;;;;2.72;1.95;;;;;;;20.67;35.94;100237.00;5000022;28;20081;-70
2022/06/01 10:18:21;;;;;;;3.05;1.13;;;;;;;20.79;35.16;100242.25;5007267;28;20045;-70
2022/06/01 10:20:56;;;;;;;4.05;1.00;;;;;;;20.69;34.95;100238.69;5007977;28;20387;-70
2022/06/01 10:23:26;;;;;;;3.15;1.13;;;;;;;20.35;35.68;100246.25;5004852;28;20474;-70
2022/06/01 10:26:09;;;;;;;2.60;1.02;;;;;;;20.35;35.61;100233.66;5003471;28;20540;-69
2022/06/01 10:28:45;;;;;;;2.03;1.00;;;;;;;20.27;36.15;100233.50;5009945;28;20393;-70
2022/06/01 10:31:34;;;;;;;3.70;0.90;;;;;;;20.40;36.34;100239.53;5004560;28;20109;-72
2022/06/01 10:34:06;;;;;;;3.30;0.73;;;;;;;20.80;35.84;100236.72;5000846;28;20129;-71
2022/06/01 10:36:43;;;;;;;3.45;1.10;;;;;;;21.05;33.88;100239.84;5013021;28;20049;-70
2022/06/01 10:39:27;;;;;;;3.40;0.80;;;;;;;21.27;34.13;100232.31;4996799;28;20041;-70
2022/06/01 10:42:22;;;;;;;1.00;0.75;;;;;;;21.34;32.90;100230.78;5009269;28;20428;-70
2022/06/01 10:45:04;;;;;;;4.47;0.90;;;;;;;21.41;33.55;100220.25;5012778;28;20088;-70
2022/06/01 10:47:37;;;;;;;3.15;0.82;;;;;;;21.80;32.43;100220.97;4991909;28;20061;-69
2022/06/01 10:50:19;;;;;;;1.48;1.25;;;;;;;22.26;32.08;100221.91;5004675;28;20081;-70
2022/06/01 10:53:09;;;;;;;5.38;0.75;;;;;;;22.07;32.59;100222.03;5005026;28;20124;-70
2022/06/01 10:55:42;;;;;;;8.05;0.90;;;;;;;21.73;33.00;100230.66;5010300;28;20069;-69
2022/06/01 10:58:17;;;;;;;1.48;0.60;;;;;;;21.15;33.95;100203.84;5006741;28;20132;-70
2022/06/01 11:00:58;;;;;;;3.40;0.90;;;;;;;21.29;33.80;100227.66;5005170;28;20136;-71
2022/06/01 11:04:06;;;;;;;1.23;0.77;;;;;;;21.61;33.28;100219.19;5006551;28;20097;-70
2022/06/01 11:06:51;;;;;;;2.65;0.88;;;;;;;22.08;31.97;100221.03;5009151;28;20069;-71
2022/06/01 11:09:30;;;;;;;1.73;0.57;;;;;;;21.95;31.61;100202.47;5003757;28;20092;-70
2022/06/01 11:12:25;;;;;;;3.80;1.10;;;;;;;21.85;31.53;100224.09;5006581;28;20125;-69
2022/06/01 11:15:28;;;;;;;3.10;0.80;;;;;;;21.62;31.98;100209.28;5005134;28;20109;-70
2022/06/01 11:18:02;;;;;;;2.65;0.80;;;;;;;21.65;32.76;100212.53;5008244;28;20058;-71
2022/06/01 11:20:46;;;;;;;1.38;0.63;;;;;;;21.73;31.12;100217.16;5018560;28;20064;-71
2022/06/01 11:23:22;;;;;;;1.88;0.80;;;;;;;21.46;31.09;100214.44;4987290;28;20054;-69
2022/06/01 11:26:12;;;;;;;4.05;0.80;;;;;;;20.95;32.79;100205.69;5009298;28;20562;-71
2022/06/01 11:29:33;;;;;;;2.22;0.60;;;;;;;20.49;32.46;100201.00;5006920;28;20068;-71
2022/06/01 11:32:06;;;;;;;1.52;0.60;;;;;;;20.53;32.90;100180.91;4999326;28;20136;-71
2022/06/01 11:34:44;;;;;;;7.00;1.10;;;;;;;20.49;33.00;100162.50;5011729;28;20058;-70
2022/06/01 11:37:17;;;;;;;1.98;0.90;;;;;;;20.58;32.58;100191.28;5006845;28;20058;-70
2022/06/01 11:39:51;;;;;;;2.25;0.90;;;;;;;20.58;33.07;100197.50;4997061;28;20051;-70
2022/06/01 11:42:30;;;;;;;2.03;1.02;;;;;;;20.80;32.72;100192.81;5020048;28;20054;-70
2022/06/01 11:45:15;;;;;;;2.50;1.10;;;;;;;20.85;32.69;100186.03;5010861;28;20060;-71
2022/06/01 11:47:49;;;;;;;3.58;1.20;;;;;;;21.06;33.14;100188.56;5008801;28;20546;-70
2022/06/01 11:50:25;;;;;;;2.05;0.90;;;;;;;21.10;32.36;100200.72;5008478;28;20532;-70
2022/06/01 11:52:58;;;;;;;3.92;0.70;;;;;;;21.01;32.20;100196.19;5009533;28;20108;-70
2022/06/01 11:55:34;;;;;;;2.28;0.80;;;;;;;21.02;32.12;100195.22;5021701;28;20053;-71
2022/06/01 11:58:06;;;;;;;3.92;0.75;;;;;;;21.16;31.97;100178.59;5003514;28;20046;-70
2022/06/01 12:00:35;;;;;;;1.25;0.52;;;;;;;21.56;32.39;100182.94;5006378;28;20078;-71
2022/06/01 12:03:24;;;;;;;2.92;0.60;;;;;;;21.51;31.54;100191.44;4982099;28;20124;-71
2022/06/01 12:06:35;;;;;;;2.07;0.70;;;;;;;21.27;31.29;100159.59;5005226;28;20058;-72
2022/06/01 12:09:03;;;;;;;1.92;0.68;;;;;;;21.47;31.33;100181.09;5003900;28;20092;-74
2022/06/01 12:11:40;;;;;;;0.90;0.45;;;;;;;21.96;30.74;100178.06;5008637;28;20084;-71
2022/06/01 12:14:26;;;;;;;3.00;0.80;;;;;;;21.55;30.67;100157.84;5004895;28;20127;-71
2022/06/01 12:17:17;;;;;;;2.10;0.50;;;;;;;21.94;30.17;100174.66;5005918;28;20049;-71
2022/06/01 12:19:53;;;;;;;2.33;0.75;;;;;;;22.24;31.25;100180.75;5006735;28;20664;-72